sensor_id;sensor_type;location;lat;lon;timestamp;P1;durP1;ratioP1;P2;durP2;ratioP2
77828;SDS011;67019;51.034;3.728;2023-04-24T00:01:28;25.90;;;13.58;;
77828;SDS011;67019;51.034;3.728;2023-04-24T00:03:57;25.77;;;13.88;;
77828;SDS011;67019;51.034;3.728;2023-04-24T00:06:26;32.40;;;15.68;;
77828;SDS011;67019;51.034;3.728;2023-04-24T00:09:01;31.77;;;15.93;;
77828;SDS011;67019;51.034;3.728;2023-04-24T00:11:29;19.12;;;12.75;;
77828;SDS011;67019;51.034;3.728;2023-04-24T00:13:56;21.85;;;13.68;;
77828;SDS011;67019;51.034;3.728;2023-04-24T00:16:24;21.23;;;11.25;;
77828;SDS011;67019;51.034;3.728;2023-04-24T00:18:52;25.43;;;14.78;;
77828;SDS011;67019;51.034;3.728;2023-04-24T00:21:20;24.25;;;15.00;;
77828;SDS011;67019;51.034;3.728;2023-04-24T00:23:49;32.03;;;12.33;;
77828;SDS011;67019;51.034;3.728;2023-04-24T00:26:17;25.43;;;13.62;;
77828;SDS011;67019;51.034;3.728;2023-04-24T00:28:44;19.02;;;12.80;;
77828;SDS011;67019;51.034;3.728;2023-04-24T00:31:13;16.80;;;11.40;;
77828;SDS011;67019;51.034;3.728;2023-04-24T00:33:41;19.87;;;12.58;;
77828;SDS011;67019;51.034;3.728;2023-04-24T00:36:08;18.57;;;11.83;;
77828;SDS011;67019;51.034;3.728;2023-04-24T00:38:36;18.12;;;11.08;;
77828;SDS011;67019;51.034;3.728;2023-04-24T00:41:04;15.32;;;10.80;;
77828;SDS011;67019;51.034;3.728;2023-04-24T00:43:31;23.85;;;10.43;;
77828;SDS011;67019;51.034;3.728;2023-04-24T00:45:59;16.07;;;10.72;;
77828;SDS011;67019;51.034;3.728;2023-04-24T00:48:27;14.18;;;9.58;;
77828;SDS011;67019;51.034;3.728;2023-04-24T00:50:55;14.47;;;9.63;;
77828;SDS011;67019;51.034;3.728;2023-04-24T00:53:24;14.87;;;9.78;;
77828;SDS011;67019;51.034;3.728;2023-04-24T00:55:52;17.35;;;10.40;;
77828;SDS011;67019;51.034;3.728;2023-04-24T00:58:19;19.95;;;10.82;;
77828;SDS011;67019;51.034;3.728;2023-04-24T01:00:47;17.12;;;10.82;;
77828;SDS011;67019;51.034;3.728;2023-04-24T01:03:22;21.95;;;10.82;;
77828;SDS011;67019;51.034;3.728;2023-04-24T01:05:51;17.27;;;9.83;;
77828;SDS011;67019;51.034;3.728;2023-04-24T01:08:21;18.95;;;9.08;;
77828;SDS011;67019;51.034;3.728;2023-04-24T01:10:54;15.75;;;9.13;;
77828;SDS011;67019;51.034;3.728;2023-04-24T01:13:23;16.20;;;9.75;;
77828;SDS011;67019;51.034;3.728;2023-04-24T01:15:51;10.45;;;7.60;;
77828;SDS011;67019;51.034;3.728;2023-04-24T01:18:19;20.15;;;9.85;;
77828;SDS011;67019;51.034;3.728;2023-04-24T01:20:47;14.33;;;9.28;;
77828;SDS011;67019;51.034;3.728;2023-04-24T01:23:18;13.08;;;8.63;;
77828;SDS011;67019;51.034;3.728;2023-04-24T01:25:46;12.00;;;8.65;;
77828;SDS011;67019;51.034;3.728;2023-04-24T01:28:14;13.98;;;9.85;;
77828;SDS011;67019;51.034;3.728;2023-04-24T01:30:44;12.60;;;8.15;;
77828;SDS011;67019;51.034;3.728;2023-04-24T01:33:12;18.15;;;10.58;;
77828;SDS011;67019;51.034;3.728;2023-04-24T01:35:40;16.48;;;10.25;;
77828;SDS011;67019;51.034;3.728;2023-04-24T01:38:09;11.08;;;8.18;;
77828;SDS011;67019;51.034;3.728;2023-04-24T01:40:37;17.67;;;9.98;;
77828;SDS011;67019;51.034;3.728;2023-04-24T01:43:05;11.70;;;8.28;;
77828;SDS011;67019;51.034;3.728;2023-04-24T01:45:32;16.05;;;10.98;;
77828;SDS011;67019;51.034;3.728;2023-04-24T01:48:00;15.98;;;8.23;;
77828;SDS011;67019;51.034;3.728;2023-04-24T01:50:28;14.70;;;8.95;;
77828;SDS011;67019;51.034;3.728;2023-04-24T01:52:56;19.35;;;12.13;;
77828;SDS011;67019;51.034;3.728;2023-04-24T01:55:25;22.20;;;12.93;;
77828;SDS011;67019;51.034;3.728;2023-04-24T01:57:53;19.07;;;12.70;;
77828;SDS011;67019;51.034;3.728;2023-04-24T02:02:50;18.00;;;11.55;;
77828;SDS011;67019;51.034;3.728;2023-04-24T02:05:18;21.97;;;13.50;;
77828;SDS011;67019;51.034;3.728;2023-04-24T02:07:46;19.87;;;12.75;;
77828;SDS011;67019;51.034;3.728;2023-04-24T02:10:13;21.25;;;12.82;;
77828;SDS011;67019;51.034;3.728;2023-04-24T02:12:41;16.12;;;10.48;;
77828;SDS011;67019;51.034;3.728;2023-04-24T02:15:09;18.87;;;11.25;;
77828;SDS011;67019;51.034;3.728;2023-04-24T02:17:37;24.05;;;14.33;;
77828;SDS011;67019;51.034;3.728;2023-04-24T02:20:06;22.98;;;14.98;;
77828;SDS011;67019;51.034;3.728;2023-04-24T02:22:34;25.00;;;15.18;;
77828;SDS011;67019;51.034;3.728;2023-04-24T02:25:02;24.57;;;13.60;;
77828;SDS011;67019;51.034;3.728;2023-04-24T02:27:29;26.27;;;18.25;;
77828;SDS011;67019;51.034;3.728;2023-04-24T02:29:57;26.90;;;17.98;;
77828;SDS011;67019;51.034;3.728;2023-04-24T02:32:25;25.70;;;17.75;;
77828;SDS011;67019;51.034;3.728;2023-04-24T02:34:53;25.05;;;16.48;;
77828;SDS011;67019;51.034;3.728;2023-04-24T02:37:21;26.27;;;15.88;;
77828;SDS011;67019;51.034;3.728;2023-04-24T02:39:49;22.15;;;13.25;;
77828;SDS011;67019;51.034;3.728;2023-04-24T02:42:16;23.75;;;15.25;;
77828;SDS011;67019;51.034;3.728;2023-04-24T02:44:44;23.15;;;16.65;;
77828;SDS011;67019;51.034;3.728;2023-04-24T02:47:11;27.32;;;16.10;;
77828;SDS011;67019;51.034;3.728;2023-04-24T02:49:39;21.27;;;14.85;;
77828;SDS011;67019;51.034;3.728;2023-04-24T02:52:07;23.57;;;11.03;;
77828;SDS011;67019;51.034;3.728;2023-04-24T02:54:35;24.10;;;13.68;;
77828;SDS011;67019;51.034;3.728;2023-04-24T02:57:02;14.10;;;8.85;;
77828;SDS011;67019;51.034;3.728;2023-04-24T02:59:30;15.40;;;9.38;;
77828;SDS011;67019;51.034;3.728;2023-04-24T03:01:58;23.55;;;8.60;;
77828;SDS011;67019;51.034;3.728;2023-04-24T03:04:29;12.73;;;7.55;;
77828;SDS011;67019;51.034;3.728;2023-04-24T03:10:21;13.68;;;5.90;;
77828;SDS011;67019;51.034;3.728;2023-04-24T03:12:48;17.45;;;6.55;;
77828;SDS011;67019;51.034;3.728;2023-04-24T03:15:16;10.25;;;6.00;;
77828;SDS011;67019;51.034;3.728;2023-04-24T03:21:06;19.37;;;7.40;;
77828;SDS011;67019;51.034;3.728;2023-04-24T03:26:56;15.63;;;6.70;;
77828;SDS011;67019;51.034;3.728;2023-04-24T03:29:25;12.50;;;6.78;;
77828;SDS011;67019;51.034;3.728;2023-04-24T03:31:52;15.80;;;8.73;;
77828;SDS011;67019;51.034;3.728;2023-04-24T03:37:42;20.17;;;10.35;;
77828;SDS011;67019;51.034;3.728;2023-04-24T03:40:10;14.68;;;10.40;;
77828;SDS011;67019;51.034;3.728;2023-04-24T03:42:38;21.90;;;9.63;;
77828;SDS011;67019;51.034;3.728;2023-04-24T03:45:06;22.87;;;11.48;;
77828;SDS011;67019;51.034;3.728;2023-04-24T03:47:34;19.20;;;9.33;;
77828;SDS011;67019;51.034;3.728;2023-04-24T03:50:02;27.93;;;12.55;;
77828;SDS011;67019;51.034;3.728;2023-04-24T03:52:30;26.05;;;12.98;;
77828;SDS011;67019;51.034;3.728;2023-04-24T03:54:57;24.27;;;14.58;;
77828;SDS011;67019;51.034;3.728;2023-04-24T03:57:25;25.77;;;13.83;;
77828;SDS011;67019;51.034;3.728;2023-04-24T03:59:52;22.80;;;13.20;;
77828;SDS011;67019;51.034;3.728;2023-04-24T04:02:20;29.80;;;12.95;;
77828;SDS011;67019;51.034;3.728;2023-04-24T04:04:48;34.63;;;14.58;;
77828;SDS011;67019;51.034;3.728;2023-04-24T04:07:16;21.95;;;12.15;;
77828;SDS011;67019;51.034;3.728;2023-04-24T04:09:44;28.40;;;12.80;;
77828;SDS011;67019;51.034;3.728;2023-04-24T04:12:11;25.57;;;13.88;;
77828;SDS011;67019;51.034;3.728;2023-04-24T04:14:39;20.97;;;10.88;;
77828;SDS011;67019;51.034;3.728;2023-04-24T04:17:07;24.07;;;11.83;;
77828;SDS011;67019;51.034;3.728;2023-04-24T04:19:34;27.22;;;13.13;;
77828;SDS011;67019;51.034;3.728;2023-04-24T04:22:02;31.17;;;12.65;;
77828;SDS011;67019;51.034;3.728;2023-04-24T04:24:30;27.17;;;12.13;;
77828;SDS011;67019;51.034;3.728;2023-04-24T04:26:57;18.07;;;11.28;;
77828;SDS011;67019;51.034;3.728;2023-04-24T04:29:26;26.37;;;12.73;;
77828;SDS011;67019;51.034;3.728;2023-04-24T04:31:53;22.95;;;13.83;;
77828;SDS011;67019;51.034;3.728;2023-04-24T04:34:21;27.87;;;14.05;;
77828;SDS011;67019;51.034;3.728;2023-04-24T04:36:49;23.55;;;12.43;;
77828;SDS011;67019;51.034;3.728;2023-04-24T04:39:16;25.05;;;13.05;;
77828;SDS011;67019;51.034;3.728;2023-04-24T04:41:44;25.97;;;10.90;;
77828;SDS011;67019;51.034;3.728;2023-04-24T04:44:14;28.45;;;12.28;;
77828;SDS011;67019;51.034;3.728;2023-04-24T04:46:42;22.32;;;10.80;;
77828;SDS011;67019;51.034;3.728;2023-04-24T04:49:10;23.80;;;12.55;;
77828;SDS011;67019;51.034;3.728;2023-04-24T04:51:38;28.95;;;13.30;;
77828;SDS011;67019;51.034;3.728;2023-04-24T04:54:06;25.00;;;13.03;;
77828;SDS011;67019;51.034;3.728;2023-04-24T04:56:34;19.20;;;11.65;;
77828;SDS011;67019;51.034;3.728;2023-04-24T04:59:01;30.17;;;16.05;;
77828;SDS011;67019;51.034;3.728;2023-04-24T05:01:29;22.32;;;13.15;;
77828;SDS011;67019;51.034;3.728;2023-04-24T05:03:57;27.60;;;13.80;;
77828;SDS011;67019;51.034;3.728;2023-04-24T05:06:24;26.50;;;13.45;;
77828;SDS011;67019;51.034;3.728;2023-04-24T05:08:53;24.52;;;12.03;;
77828;SDS011;67019;51.034;3.728;2023-04-24T05:11:23;20.82;;;10.18;;
77828;SDS011;67019;51.034;3.728;2023-04-24T05:13:51;21.48;;;12.65;;
77828;SDS011;67019;51.034;3.728;2023-04-24T05:16:19;28.70;;;13.03;;
77828;SDS011;67019;51.034;3.728;2023-04-24T05:18:47;22.48;;;14.18;;
77828;SDS011;67019;51.034;3.728;2023-04-24T05:21:16;24.50;;;13.75;;
77828;SDS011;67019;51.034;3.728;2023-04-24T05:23:44;32.93;;;16.40;;
77828;SDS011;67019;51.034;3.728;2023-04-24T05:26:12;35.38;;;15.15;;
77828;SDS011;67019;51.034;3.728;2023-04-24T05:28:41;30.12;;;16.77;;
77828;SDS011;67019;51.034;3.728;2023-04-24T05:31:08;29.95;;;13.65;;
77828;SDS011;67019;51.034;3.728;2023-04-24T05:33:36;33.33;;;15.90;;
77828;SDS011;67019;51.034;3.728;2023-04-24T05:36:05;28.75;;;15.05;;
77828;SDS011;67019;51.034;3.728;2023-04-24T05:38:33;29.27;;;14.90;;
77828;SDS011;67019;51.034;3.728;2023-04-24T05:41:01;26.00;;;14.83;;
77828;SDS011;67019;51.034;3.728;2023-04-24T05:43:29;33.00;;;14.33;;
77828;SDS011;67019;51.034;3.728;2023-04-24T05:45:57;33.35;;;14.03;;
77828;SDS011;67019;51.034;3.728;2023-04-24T05:48:24;30.23;;;15.65;;
77828;SDS011;67019;51.034;3.728;2023-04-24T05:50:52;34.50;;;15.95;;
77828;SDS011;67019;51.034;3.728;2023-04-24T05:53:20;35.03;;;16.10;;
77828;SDS011;67019;51.034;3.728;2023-04-24T05:55:47;26.75;;;14.47;;
77828;SDS011;67019;51.034;3.728;2023-04-24T05:58:15;40.17;;;19.07;;
77828;SDS011;67019;51.034;3.728;2023-04-24T06:00:43;37.95;;;16.00;;
77828;SDS011;67019;51.034;3.728;2023-04-24T06:03:12;30.77;;;15.43;;
77828;SDS011;67019;51.034;3.728;2023-04-24T06:05:39;39.05;;;18.25;;
77828;SDS011;67019;51.034;3.728;2023-04-24T06:08:07;41.58;;;18.48;;
77828;SDS011;67019;51.034;3.728;2023-04-24T06:10:35;31.80;;;18.62;;
77828;SDS011;67019;51.034;3.728;2023-04-24T06:13:02;38.23;;;18.80;;
77828;SDS011;67019;51.034;3.728;2023-04-24T06:15:30;28.27;;;15.95;;
77828;SDS011;67019;51.034;3.728;2023-04-24T06:18:05;33.23;;;15.10;;
77828;SDS011;67019;51.034;3.728;2023-04-24T06:20:33;34.25;;;17.05;;
77828;SDS011;67019;51.034;3.728;2023-04-24T06:23:00;43.38;;;19.52;;
77828;SDS011;67019;51.034;3.728;2023-04-24T06:25:28;34.67;;;17.85;;
77828;SDS011;67019;51.034;3.728;2023-04-24T06:27:56;37.58;;;18.65;;
77828;SDS011;67019;51.034;3.728;2023-04-24T06:30:24;31.95;;;16.85;;
77828;SDS011;67019;51.034;3.728;2023-04-24T06:32:52;25.65;;;13.25;;
77828;SDS011;67019;51.034;3.728;2023-04-24T06:35:20;30.43;;;14.28;;
77828;SDS011;67019;51.034;3.728;2023-04-24T06:37:48;30.77;;;14.98;;
77828;SDS011;67019;51.034;3.728;2023-04-24T06:40:16;27.67;;;13.85;;
77828;SDS011;67019;51.034;3.728;2023-04-24T06:42:44;38.85;;;15.08;;
77828;SDS011;67019;51.034;3.728;2023-04-24T06:45:12;30.92;;;15.83;;
77828;SDS011;67019;51.034;3.728;2023-04-24T06:47:39;25.60;;;13.65;;
77828;SDS011;67019;51.034;3.728;2023-04-24T06:50:07;36.70;;;15.65;;
77828;SDS011;67019;51.034;3.728;2023-04-24T06:52:35;29.80;;;15.23;;
77828;SDS011;67019;51.034;3.728;2023-04-24T06:55:03;28.85;;;14.75;;
77828;SDS011;67019;51.034;3.728;2023-04-24T06:57:31;36.77;;;14.40;;
77828;SDS011;67019;51.034;3.728;2023-04-24T06:59:59;30.37;;;12.50;;
77828;SDS011;67019;51.034;3.728;2023-04-24T07:02:27;32.03;;;12.88;;
77828;SDS011;67019;51.034;3.728;2023-04-24T07:04:54;31.40;;;13.32;;
77828;SDS011;67019;51.034;3.728;2023-04-24T07:07:22;20.75;;;11.10;;
77828;SDS011;67019;51.034;3.728;2023-04-24T07:09:50;26.40;;;11.53;;
77828;SDS011;67019;51.034;3.728;2023-04-24T07:12:19;25.25;;;11.57;;
77828;SDS011;67019;51.034;3.728;2023-04-24T07:14:47;25.60;;;11.35;;
77828;SDS011;67019;51.034;3.728;2023-04-24T07:17:15;20.43;;;10.70;;
77828;SDS011;67019;51.034;3.728;2023-04-24T07:19:42;36.48;;;12.68;;
77828;SDS011;67019;51.034;3.728;2023-04-24T07:22:10;31.42;;;11.57;;
77828;SDS011;67019;51.034;3.728;2023-04-24T07:24:39;29.15;;;11.43;;
77828;SDS011;67019;51.034;3.728;2023-04-24T07:27:07;21.68;;;9.73;;
77828;SDS011;67019;51.034;3.728;2023-04-24T07:29:36;25.50;;;10.78;;
77828;SDS011;67019;51.034;3.728;2023-04-24T07:32:04;18.60;;;8.10;;
77828;SDS011;67019;51.034;3.728;2023-04-24T07:34:31;15.70;;;9.05;;
77828;SDS011;67019;51.034;3.728;2023-04-24T07:36:59;28.23;;;10.78;;
77828;SDS011;67019;51.034;3.728;2023-04-24T07:39:27;23.40;;;9.73;;
77828;SDS011;67019;51.034;3.728;2023-04-24T07:41:55;19.35;;;7.58;;
77828;SDS011;67019;51.034;3.728;2023-04-24T07:44:24;14.90;;;8.38;;
77828;SDS011;67019;51.034;3.728;2023-04-24T07:46:52;16.52;;;7.62;;
77828;SDS011;67019;51.034;3.728;2023-04-24T07:49:20;26.62;;;7.35;;
77828;SDS011;67019;51.034;3.728;2023-04-24T07:51:48;15.15;;;6.87;;
77828;SDS011;67019;51.034;3.728;2023-04-24T07:54:16;23.10;;;9.90;;
77828;SDS011;67019;51.034;3.728;2023-04-24T07:56:44;21.25;;;7.08;;
77828;SDS011;67019;51.034;3.728;2023-04-24T07:59:11;18.10;;;8.90;;
77828;SDS011;67019;51.034;3.728;2023-04-24T08:01:39;21.23;;;8.13;;
77828;SDS011;67019;51.034;3.728;2023-04-24T08:04:07;19.05;;;6.87;;
77828;SDS011;67019;51.034;3.728;2023-04-24T08:06:34;18.98;;;7.08;;
77828;SDS011;67019;51.034;3.728;2023-04-24T08:09:02;18.80;;;8.45;;
77828;SDS011;67019;51.034;3.728;2023-04-24T08:11:30;18.95;;;5.70;;
77828;SDS011;67019;51.034;3.728;2023-04-24T08:13:58;16.95;;;5.70;;
77828;SDS011;67019;51.034;3.728;2023-04-24T08:16:27;19.07;;;5.17;;
77828;SDS011;67019;51.034;3.728;2023-04-24T08:18:55;12.90;;;4.92;;
77828;SDS011;67019;51.034;3.728;2023-04-24T08:21:22;16.93;;;5.28;;
77828;SDS011;67019;51.034;3.728;2023-04-24T08:23:52;10.30;;;4.83;;
77828;SDS011;67019;51.034;3.728;2023-04-24T08:26:19;11.40;;;5.15;;
77828;SDS011;67019;51.034;3.728;2023-04-24T08:28:48;9.78;;;5.17;;
77828;SDS011;67019;51.034;3.728;2023-04-24T08:31:37;18.70;;;4.75;;
77828;SDS011;67019;51.034;3.728;2023-04-24T08:34:02;19.42;;;4.87;;
77828;SDS011;67019;51.034;3.728;2023-04-24T08:36:31;13.78;;;4.95;;
77828;SDS011;67019;51.034;3.728;2023-04-24T08:38:59;12.35;;;4.05;;
77828;SDS011;67019;51.034;3.728;2023-04-24T08:41:27;14.13;;;5.87;;
77828;SDS011;67019;51.034;3.728;2023-04-24T08:43:54;11.68;;;4.58;;
77828;SDS011;67019;51.034;3.728;2023-04-24T08:46:24;8.53;;;4.70;;
77828;SDS011;67019;51.034;3.728;2023-04-24T08:48:52;10.63;;;4.80;;
77828;SDS011;67019;51.034;3.728;2023-04-24T08:51:21;10.60;;;4.30;;
77828;SDS011;67019;51.034;3.728;2023-04-24T08:53:50;12.05;;;5.22;;
77828;SDS011;67019;51.034;3.728;2023-04-24T08:56:21;13.03;;;4.83;;
77828;SDS011;67019;51.034;3.728;2023-04-24T08:58:52;9.78;;;4.45;;
77828;SDS011;67019;51.034;3.728;2023-04-24T09:01:20;12.85;;;4.87;;
77828;SDS011;67019;51.034;3.728;2023-04-24T09:03:50;13.18;;;4.78;;
77828;SDS011;67019;51.034;3.728;2023-04-24T09:06:19;11.75;;;4.47;;
77828;SDS011;67019;51.034;3.728;2023-04-24T09:08:48;15.28;;;4.15;;
77828;SDS011;67019;51.034;3.728;2023-04-24T09:11:18;10.93;;;5.22;;
77828;SDS011;67019;51.034;3.728;2023-04-24T09:13:46;19.95;;;5.42;;
77828;SDS011;67019;51.034;3.728;2023-04-24T09:16:14;15.90;;;5.10;;
77828;SDS011;67019;51.034;3.728;2023-04-24T09:18:42;16.85;;;5.20;;
77828;SDS011;67019;51.034;3.728;2023-04-24T09:21:10;13.90;;;4.97;;
77828;SDS011;67019;51.034;3.728;2023-04-24T09:23:38;8.60;;;4.60;;
77828;SDS011;67019;51.034;3.728;2023-04-24T09:26:07;16.07;;;5.60;;
77828;SDS011;67019;51.034;3.728;2023-04-24T09:28:37;10.38;;;4.83;;
77828;SDS011;67019;51.034;3.728;2023-04-24T09:31:14;11.57;;;4.95;;
77828;SDS011;67019;51.034;3.728;2023-04-24T09:33:56;11.35;;;4.45;;
77828;SDS011;67019;51.034;3.728;2023-04-24T09:39:04;9.03;;;4.67;;
77828;SDS011;67019;51.034;3.728;2023-04-24T09:41:47;5.95;;;3.67;;
77828;SDS011;67019;51.034;3.728;2023-04-24T09:44:20;9.80;;;4.78;;
77828;SDS011;67019;51.034;3.728;2023-04-24T09:46:49;18.20;;;5.37;;
77828;SDS011;67019;51.034;3.728;2023-04-24T09:49:27;11.22;;;3.85;;
77828;SDS011;67019;51.034;3.728;2023-04-24T09:52:05;7.45;;;3.35;;
77828;SDS011;67019;51.034;3.728;2023-04-24T09:54:34;6.37;;;3.55;;
77828;SDS011;67019;51.034;3.728;2023-04-24T09:57:04;11.95;;;5.28;;
77828;SDS011;67019;51.034;3.728;2023-04-24T09:59:33;8.65;;;4.25;;
77828;SDS011;67019;51.034;3.728;2023-04-24T10:02:00;4.92;;;4.28;;
77828;SDS011;67019;51.034;3.728;2023-04-24T10:04:28;11.73;;;4.65;;
77828;SDS011;67019;51.034;3.728;2023-04-24T10:06:56;10.75;;;4.00;;
77828;SDS011;67019;51.034;3.728;2023-04-24T10:09:25;18.15;;;5.70;;
77828;SDS011;67019;51.034;3.728;2023-04-24T10:11:53;11.60;;;4.83;;
77828;SDS011;67019;51.034;3.728;2023-04-24T10:14:22;6.45;;;3.80;;
77828;SDS011;67019;51.034;3.728;2023-04-24T10:16:54;12.35;;;3.35;;
77828;SDS011;67019;51.034;3.728;2023-04-24T10:19:25;10.28;;;4.55;;
77828;SDS011;67019;51.034;3.728;2023-04-24T10:21:53;8.45;;;3.80;;
77828;SDS011;67019;51.034;3.728;2023-04-24T10:24:21;11.90;;;3.85;;
77828;SDS011;67019;51.034;3.728;2023-04-24T10:26:49;11.45;;;4.60;;
77828;SDS011;67019;51.034;3.728;2023-04-24T10:29:17;8.10;;;4.12;;
77828;SDS011;67019;51.034;3.728;2023-04-24T10:31:47;9.28;;;4.20;;
77828;SDS011;67019;51.034;3.728;2023-04-24T10:34:15;8.93;;;4.45;;
77828;SDS011;67019;51.034;3.728;2023-04-24T10:36:46;7.58;;;3.90;;
77828;SDS011;67019;51.034;3.728;2023-04-24T10:41:42;10.10;;;3.10;;
77828;SDS011;67019;51.034;3.728;2023-04-24T10:44:12;10.53;;;4.28;;
77828;SDS011;67019;51.034;3.728;2023-04-24T10:46:45;9.18;;;3.45;;
77828;SDS011;67019;51.034;3.728;2023-04-24T10:49:15;8.43;;;3.27;;
77828;SDS011;67019;51.034;3.728;2023-04-24T10:51:47;9.88;;;4.47;;
77828;SDS011;67019;51.034;3.728;2023-04-24T10:54:34;8.23;;;4.05;;
77828;SDS011;67019;51.034;3.728;2023-04-24T11:00:13;10.32;;;3.15;;
77828;SDS011;67019;51.034;3.728;2023-04-24T11:02:41;10.90;;;4.28;;
77828;SDS011;67019;51.034;3.728;2023-04-24T11:05:19;9.08;;;3.92;;
77828;SDS011;67019;51.034;3.728;2023-04-24T11:11:02;10.68;;;4.25;;
77828;SDS011;67019;51.034;3.728;2023-04-24T11:27:15;10.53;;;4.25;;
77828;SDS011;67019;51.034;3.728;2023-04-24T11:32:30;5.95;;;3.60;;
77828;SDS011;67019;51.034;3.728;2023-04-24T11:40:07;7.22;;;3.00;;
77828;SDS011;67019;51.034;3.728;2023-04-24T11:42:47;11.80;;;4.05;;
77828;SDS011;67019;51.034;3.728;2023-04-24T11:45:16;8.23;;;3.33;;
77828;SDS011;67019;51.034;3.728;2023-04-24T11:47:46;9.80;;;3.62;;
77828;SDS011;67019;51.034;3.728;2023-04-24T11:50:16;9.85;;;5.15;;
77828;SDS011;67019;51.034;3.728;2023-04-24T11:52:44;7.45;;;3.02;;
77828;SDS011;67019;51.034;3.728;2023-04-24T11:57:56;8.28;;;2.20;;
77828;SDS011;67019;51.034;3.728;2023-04-24T12:00:25;4.67;;;2.55;;
77828;SDS011;67019;51.034;3.728;2023-04-24T12:03:12;9.90;;;3.05;;
77828;SDS011;67019;51.034;3.728;2023-04-24T12:05:37;5.53;;;2.40;;
77828;SDS011;67019;51.034;3.728;2023-04-24T12:08:05;6.42;;;3.10;;
77828;SDS011;67019;51.034;3.728;2023-04-24T12:10:35;8.58;;;2.35;;
77828;SDS011;67019;51.034;3.728;2023-04-24T12:13:02;4.00;;;2.20;;
77828;SDS011;67019;51.034;3.728;2023-04-24T12:15:30;7.55;;;3.45;;
77828;SDS011;67019;51.034;3.728;2023-04-24T12:17:58;10.20;;;2.77;;
77828;SDS011;67019;51.034;3.728;2023-04-24T12:20:29;16.15;;;2.45;;
77828;SDS011;67019;51.034;3.728;2023-04-24T12:23:01;6.17;;;2.77;;
77828;SDS011;67019;51.034;3.728;2023-04-24T12:25:29;6.47;;;2.90;;
77828;SDS011;67019;51.034;3.728;2023-04-24T12:30:41;3.90;;;2.17;;
77828;SDS011;67019;51.034;3.728;2023-04-24T12:33:22;12.13;;;1.92;;
77828;SDS011;67019;51.034;3.728;2023-04-24T12:35:47;6.65;;;2.20;;
77828;SDS011;67019;51.034;3.728;2023-04-24T12:38:16;7.12;;;2.02;;
77828;SDS011;67019;51.034;3.728;2023-04-24T12:43:14;6.55;;;2.10;;
77828;SDS011;67019;51.034;3.728;2023-04-24T12:45:47;5.22;;;2.20;;
77828;SDS011;67019;51.034;3.728;2023-04-24T12:48:14;8.05;;;2.00;;
77828;SDS011;67019;51.034;3.728;2023-04-24T12:50:42;6.08;;;2.02;;
77828;SDS011;67019;51.034;3.728;2023-04-24T12:53:10;4.08;;;2.17;;
77828;SDS011;67019;51.034;3.728;2023-04-24T12:55:38;4.35;;;1.70;;
77828;SDS011;67019;51.034;3.728;2023-04-24T12:58:06;6.60;;;2.00;;
77828;SDS011;67019;51.034;3.728;2023-04-24T13:00:34;3.45;;;1.42;;
77828;SDS011;67019;51.034;3.728;2023-04-24T13:03:02;6.58;;;1.62;;
77828;SDS011;67019;51.034;3.728;2023-04-24T13:05:30;7.20;;;1.65;;
77828;SDS011;67019;51.034;3.728;2023-04-24T13:07:57;6.83;;;2.27;;
77828;SDS011;67019;51.034;3.728;2023-04-24T13:10:25;5.25;;;2.98;;
77828;SDS011;67019;51.034;3.728;2023-04-24T13:12:52;5.75;;;2.22;;
77828;SDS011;67019;51.034;3.728;2023-04-24T13:15:20;5.90;;;1.67;;
77828;SDS011;67019;51.034;3.728;2023-04-24T13:17:48;10.20;;;1.90;;
77828;SDS011;67019;51.034;3.728;2023-04-24T13:20:16;3.70;;;1.75;;
77828;SDS011;67019;51.034;3.728;2023-04-24T13:22:44;2.90;;;1.92;;
77828;SDS011;67019;51.034;3.728;2023-04-24T13:25:13;3.45;;;1.72;;
77828;SDS011;67019;51.034;3.728;2023-04-24T13:27:42;4.87;;;1.42;;
77828;SDS011;67019;51.034;3.728;2023-04-24T13:30:10;2.52;;;1.50;;
77828;SDS011;67019;51.034;3.728;2023-04-24T13:32:38;4.50;;;1.40;;
77828;SDS011;67019;51.034;3.728;2023-04-24T13:35:06;5.85;;;1.30;;
77828;SDS011;67019;51.034;3.728;2023-04-24T13:37:34;2.37;;;1.05;;
77828;SDS011;67019;51.034;3.728;2023-04-24T13:40:02;5.47;;;1.42;;
77828;SDS011;67019;51.034;3.728;2023-04-24T13:42:31;3.30;;;1.02;;
77828;SDS011;67019;51.034;3.728;2023-04-24T13:44:59;5.67;;;1.85;;
77828;SDS011;67019;51.034;3.728;2023-04-24T13:47:27;4.45;;;1.45;;
77828;SDS011;67019;51.034;3.728;2023-04-24T13:49:54;3.12;;;1.27;;
77828;SDS011;67019;51.034;3.728;2023-04-24T13:52:22;9.65;;;1.52;;
77828;SDS011;67019;51.034;3.728;2023-04-24T13:54:49;3.30;;;1.50;;
77828;SDS011;67019;51.034;3.728;2023-04-24T13:57:18;3.30;;;1.35;;
77828;SDS011;67019;51.034;3.728;2023-04-24T13:59:47;6.80;;;1.25;;
77828;SDS011;67019;51.034;3.728;2023-04-24T14:02:14;3.25;;;1.40;;
77828;SDS011;67019;51.034;3.728;2023-04-24T14:04:42;2.77;;;1.07;;
77828;SDS011;67019;51.034;3.728;2023-04-24T14:07:09;5.37;;;1.15;;
77828;SDS011;67019;51.034;3.728;2023-04-24T14:09:37;4.10;;;1.07;;
77828;SDS011;67019;51.034;3.728;2023-04-24T14:12:05;1.12;;;0.75;;
77828;SDS011;67019;51.034;3.728;2023-04-24T14:14:32;7.10;;;1.25;;
77828;SDS011;67019;51.034;3.728;2023-04-24T14:17:00;2.65;;;1.05;;
77828;SDS011;67019;51.034;3.728;2023-04-24T14:19:28;4.15;;;1.10;;
77828;SDS011;67019;51.034;3.728;2023-04-24T14:21:55;4.80;;;1.20;;
77828;SDS011;67019;51.034;3.728;2023-04-24T14:24:24;1.32;;;0.70;;
77828;SDS011;67019;51.034;3.728;2023-04-24T14:26:51;3.95;;;1.98;;
77828;SDS011;67019;51.034;3.728;2023-04-24T14:29:19;8.10;;;1.35;;
77828;SDS011;67019;51.034;3.728;2023-04-24T14:31:47;2.77;;;0.95;;
77828;SDS011;67019;51.034;3.728;2023-04-24T14:34:14;6.08;;;1.47;;
77828;SDS011;67019;51.034;3.728;2023-04-24T14:36:43;4.10;;;1.22;;
77828;SDS011;67019;51.034;3.728;2023-04-24T14:39:11;5.75;;;1.17;;
77828;SDS011;67019;51.034;3.728;2023-04-24T14:41:39;2.47;;;0.98;;
77828;SDS011;67019;51.034;3.728;2023-04-24T14:44:08;6.17;;;2.27;;
77828;SDS011;67019;51.034;3.728;2023-04-24T14:49:04;2.52;;;1.00;;
77828;SDS011;67019;51.034;3.728;2023-04-24T14:51:33;3.85;;;1.47;;
77828;SDS011;67019;51.034;3.728;2023-04-24T14:54:01;2.58;;;0.93;;
77828;SDS011;67019;51.034;3.728;2023-04-24T14:56:28;4.58;;;1.95;;
77828;SDS011;67019;51.034;3.728;2023-04-24T14:58:56;4.33;;;1.52;;
77828;SDS011;67019;51.034;3.728;2023-04-24T15:01:24;5.12;;;1.52;;
77828;SDS011;67019;51.034;3.728;2023-04-24T15:03:51;3.15;;;1.77;;
77828;SDS011;67019;51.034;3.728;2023-04-24T15:06:21;4.92;;;1.57;;
77828;SDS011;67019;51.034;3.728;2023-04-24T15:08:49;5.03;;;2.02;;
77828;SDS011;67019;51.034;3.728;2023-04-24T15:11:18;2.15;;;1.60;;
77828;SDS011;67019;51.034;3.728;2023-04-24T15:13:45;4.58;;;1.62;;
77828;SDS011;67019;51.034;3.728;2023-04-24T15:16:13;3.35;;;1.35;;
77828;SDS011;67019;51.034;3.728;2023-04-24T15:18:41;4.25;;;1.98;;
77828;SDS011;67019;51.034;3.728;2023-04-24T15:21:09;7.90;;;1.80;;
77828;SDS011;67019;51.034;3.728;2023-04-24T15:23:38;1.80;;;1.30;;
77828;SDS011;67019;51.034;3.728;2023-04-24T15:26:06;6.87;;;1.85;;
77828;SDS011;67019;51.034;3.728;2023-04-24T15:28:33;3.58;;;1.65;;
77828;SDS011;67019;51.034;3.728;2023-04-24T15:31:01;2.80;;;2.42;;
77828;SDS011;67019;51.034;3.728;2023-04-24T15:33:28;6.33;;;2.00;;
77828;SDS011;67019;51.034;3.728;2023-04-24T15:35:56;3.65;;;1.60;;
77828;SDS011;67019;51.034;3.728;2023-04-24T15:38:23;4.53;;;1.85;;
77828;SDS011;67019;51.034;3.728;2023-04-24T15:40:51;6.33;;;2.55;;